Time;durP1;ratioP1;P1;durP2;ratioP2;P2;SDS_P1;SDS_P2;PMS_P1;PMS_P2;Temp;Humidity;BMP_temperature;BMP_pressure;BME280_temperature;BME280_humidity;BME280_pressure;Samples;Min_cycle;Max_cycle;Signal;HPM_P1;HPM_P2
2022/08/03 00:01:50;;;;;;;1999.90;999.90;;;22.50;99.90;;;;;;5011946;28;20026;-77
2022/08/03 00:04:15;;;;;;;1999.90;999.90;;;22.50;99.90;;;;;;5013295;28;20022;-79
2022/08/03 00:06:41;;;;;;;1999.90;999.90;;;22.40;99.90;;;;;;5013625;28;20056;-79
2022/08/03 00:09:08;;;;;;;1999.90;999.90;;;22.40;99.90;;;;;;5013308;28;20489;-79
2022/08/03 00:11:34;;;;;;;1999.90;999.90;;;22.40;99.90;;;;;;5013079;28;20025;-76
2022/08/03 00:13:59;;;;;;;1999.90;999.90;;;22.40;99.90;;;;;;5013578;28;20377;-76
2022/08/03 00:16:25;;;;;;;1999.90;999.90;;;22.30;99.90;;;;;;5013404;28;20108;-79
2022/08/03 00:18:51;;;;;;;1999.90;999.90;;;22.30;99.90;;;;;;5013047;28;20030;-76
2022/08/03 00:21:17;;;;;;;1999.90;999.90;;;22.20;99.90;;;;;;5012330;28;20026;-76
2022/08/03 00:23:43;;;;;;;1999.90;999.90;;;22.20;99.90;;;;;;4993487;28;20076;-79
2022/08/03 00:26:09;;;;;;;1999.90;999.90;;;22.10;99.90;;;;;;4993479;28;20027;-79
2022/08/03 00:28:34;;;;;;;1999.90;999.90;;;22.10;99.90;;;;;;4993558;28;20050;-76
2022/08/03 00:31:00;;;;;;;1999.90;999.90;;;22.10;99.90;;;;;;4993684;28;20470;-79
2022/08/03 00:33:26;;;;;;;1999.90;999.90;;;22.10;99.90;;;;;;4993530;28;20030;-79
2022/08/03 00:35:51;;;;;;;1999.90;999.90;;;22.10;99.90;;;;;;4993517;28;20034;-76
2022/08/03 00:38:18;;;;;;;1999.90;999.90;;;22.10;99.90;;;;;;5000627;28;20527;-76
2022/08/03 00:40:44;;;;;;;1999.90;999.90;;;22.00;99.90;;;;;;5011141;28;20030;-76
2022/08/03 00:43:10;;;;;;;1999.90;999.90;;;22.00;99.90;;;;;;5013013;28;20560;-79
2022/08/03 00:45:39;;;;;;;1999.90;999.90;;;21.90;99.90;;;;;;5011719;28;20112;-76
2022/08/03 00:48:07;;;;;;;1999.90;999.90;;;21.90;99.90;;;;;;5013170;28;20021;-76
2022/08/03 00:50:39;;;;;;;1999.90;999.90;;;21.90;99.90;;;;;;5012900;28;20493;-76
2022/08/03 00:53:06;;;;;;;1999.90;999.90;;;21.90;99.90;;;;;;5012872;28;20105;-79
2022/08/03 00:55:32;;;;;;;1999.90;999.90;;;21.90;99.90;;;;;;5013000;28;20117;-79
2022/08/03 00:58:00;;;;;;;1999.90;999.90;;;21.90;99.90;;;;;;5013365;28;20088;-76
2022/08/03 01:00:27;;;;;;;1999.90;999.90;;;21.80;99.90;;;;;;5013025;28;20025;-79
2022/08/03 01:02:53;;;;;;;1999.90;999.90;;;21.80;99.90;;;;;;5012757;28;20366;-76
2022/08/03 01:05:20;;;;;;;1999.90;999.90;;;21.80;99.90;;;;;;5012935;28;20029;-79
2022/08/03 01:07:52;;;;;;;1999.90;999.90;;;21.80;99.90;;;;;;5011460;28;20032;-76
2022/08/03 01:10:26;;;;;;;1999.90;999.90;;;21.80;99.90;;;;;;5013068;28;20080;-79
2022/08/03 01:13:07;;;;;;;1999.90;999.90;;;21.80;99.90;;;;;;5011488;28;20034;-76
2022/08/03 01:15:58;;;;;;;1999.90;999.90;;;21.80;99.90;;;;;;5015812;28;20030;-79
2022/08/03 01:18:39;;;;;;;1999.90;999.90;;;21.80;99.90;;;;;;5016227;28;20028;-76
2022/08/03 01:21:11;;;;;;;1999.90;999.90;;;21.70;99.90;;;;;;5016465;28;20481;-79
2022/08/03 01:24:13;;;;;;;1999.90;999.90;;;21.70;99.90;;;;;;4996712;28;20473;-79
2022/08/03 01:27:14;;;;;;;1999.90;999.90;;;21.60;99.90;;;;;;4996663;28;20490;-76
2022/08/03 01:30:02;;;;;;;1999.90;999.90;;;21.60;99.90;;;;;;4988363;28;20034;-79
2022/08/03 01:32:34;;;;;;;1999.90;999.90;;;21.60;99.90;;;;;;4996789;28;20030;-79
2022/08/03 01:35:04;;;;;;;1999.90;999.90;;;21.50;99.90;;;;;;4996370;28;20034;-79
2022/08/03 01:37:39;;;;;;;1999.90;999.90;;;21.40;99.90;;;;;;4995427;28;20121;-78
2022/08/03 01:40:06;;;;;;;1999.90;999.90;;;21.40;99.90;;;;;;5016343;28;20049;-76
2022/08/03 01:42:34;;;;;;;1999.90;999.90;;;21.30;99.90;;;;;;5015414;28;20025;-79
2022/08/03 01:45:00;;;;;;;1999.90;999.90;;;21.30;99.90;;;;;;5016236;28;20038;-76
2022/08/03 01:47:29;;;;;;;1999.90;999.90;;;21.20;99.90;;;;;;5015977;28;20030;-76
2022/08/03 01:49:56;;;;;;;1999.90;999.90;;;21.20;99.90;;;;;;5015263;28;20228;-79
2022/08/03 01:52:23;;;;;;;1999.90;999.90;;;21.20;99.90;;;;;;5015598;28;20054;-79
2022/08/03 01:54:51;;;;;;;1999.90;999.90;;;21.10;99.90;;;;;;5015893;28;20463;-76
2022/08/03 01:57:18;;;;;;;1999.90;999.90;;;21.10;99.90;;;;;;5015686;28;20018;-79
2022/08/03 01:59:47;;;;;;;1999.90;999.90;;;21.10;99.90;;;;;;5015711;28;20117;-76
2022/08/03 02:02:15;;;;;;;1999.90;999.90;;;21.10;99.90;;;;;;5015664;28;20010;-79
2022/08/03 02:04:42;;;;;;;1999.90;999.90;;;21.00;99.90;;;;;;5015637;28;20101;-76
2022/08/03 02:07:09;;;;;;;1999.90;999.90;;;21.00;99.90;;;;;;5015857;28;20072;-76
2022/08/03 02:09:38;;;;;;;1999.90;999.90;;;21.00;99.90;;;;;;5015467;28;20065;-76
2022/08/03 02:12:10;;;;;;;1999.90;999.90;;;21.00;99.90;;;;;;5015351;28;20076;-79
2022/08/03 02:14:39;;;;;;;1999.90;999.90;;;21.00;99.90;;;;;;5015692;28;20105;-79
2022/08/03 02:17:06;;;;;;;1999.90;999.90;;;20.90;99.90;;;;;;5015454;28;20033;-78
2022/08/03 02:19:33;;;;;;;1999.90;999.90;;;20.90;99.90;;;;;;5015074;28;20061;-76
2022/08/03 02:21:59;;;;;;;1999.90;999.90;;;20.90;99.90;;;;;;5014866;28;20018;-76
2022/08/03 02:24:25;;;;;;;1999.90;999.90;;;20.80;99.90;;;;;;5015033;28;20026;-79
2022/08/03 02:26:54;;;;;;;1999.90;999.90;;;20.80;99.90;;;;;;5015140;28;20102;-79
2022/08/03 02:29:24;;;;;;;1999.90;999.90;;;20.80;99.90;;;;;;5013862;28;20112;-79
2022/08/03 02:31:50;;;;;;;1999.90;999.90;;;20.70;99.90;;;;;;5015184;28;20057;-76
2022/08/03 02:34:20;;;;;;;1999.90;999.90;;;20.70;99.90;;;;;;5015072;28;20124;-76
2022/08/03 02:36:48;;;;;;;1999.90;999.90;;;20.70;99.90;;;;;;5015226;28;20026;-76
2022/08/03 02:39:19;;;;;;;1999.90;999.90;;;20.60;99.90;;;;;;5015288;28;20529;-79
2022/08/03 02:41:49;;;;;;;1999.90;999.90;;;20.60;99.90;;;;;;5014341;28;20449;-76
2022/08/03 02:44:19;;;;;;;1999.90;999.90;;;20.50;99.90;;;;;;5015128;28;20077;-76
2022/08/03 02:46:48;;;;;;;1999.90;999.90;;;20.50;99.90;;;;;;5013684;28;20025;-76
2022/08/03 02:49:17;;;;;;;1999.90;999.90;;;20.50;99.90;;;;;;5014830;28;20029;-79
2022/08/03 02:51:45;;;;;;;1999.90;999.90;;;20.50;99.90;;;;;;5014834;28;20580;-79
2022/08/03 02:54:16;;;;;;;1999.90;999.90;;;20.40;99.90;;;;;;5014831;28;20061;-76
2022/08/03 02:56:44;;;;;;;1999.90;999.90;;;20.30;99.90;;;;;;5014707;28;20037;-76
2022/08/03 02:59:11;;;;;;;1999.90;999.90;;;20.30;99.90;;;;;;5014782;28;20400;-78
2022/08/03 03:01:38;;;;;;;1999.90;999.90;;;20.30;99.90;;;;;;5014356;28;20014;-76
2022/08/03 03:04:04;;;;;;;1999.90;999.90;;;20.30;99.90;;;;;;5014359;28;20591;-79
2022/08/03 03:06:31;;;;;;;1999.90;999.90;;;20.30;99.90;;;;;;5014588;28;20029;-79
2022/08/03 03:08:58;;;;;;;1999.90;999.90;;;20.30;99.90;;;;;;5014508;28;20485;-79
2022/08/03 03:11:25;;;;;;;1999.90;999.90;;;20.20;99.90;;;;;;5014307;28;20022;-76
2022/08/03 03:13:52;;;;;;;1999.90;999.90;;;20.20;99.90;;;;;;5014448;28;20018;-76
2022/08/03 03:16:19;;;;;;;1999.90;999.90;;;20.20;99.90;;;;;;5014421;28;20076;-79
2022/08/03 03:18:47;;;;;;;1999.90;999.90;;;20.20;99.90;;;;;;5014005;28;20543;-79
2022/08/03 03:21:16;;;;;;;1999.90;999.90;;;20.30;99.90;;;;;;5014291;28;20046;-79
2022/08/03 03:23:42;;;;;;;1999.90;999.90;;;20.30;99.90;;;;;;4994950;28;20039;-76
2022/08/03 03:26:08;;;;;;;1999.90;999.90;;;20.30;99.90;;;;;;4994552;28;20437;-79
2022/08/03 03:28:38;;;;;;;1999.90;999.90;;;20.30;99.90;;;;;;4994505;28;20037;-79
2022/08/03 03:31:05;;;;;;;1999.90;999.90;;;20.30;99.90;;;;;;4994866;28;20050;-79
2022/08/03 03:33:33;;;;;;;1999.90;999.90;;;20.20;99.90;;;;;;4994225;28;20084;-79
2022/08/03 03:35:59;;;;;;;1999.90;999.90;;;20.20;99.90;;;;;;4993703;28;20033;-79
2022/08/03 03:38:25;;;;;;;1999.90;999.90;;;20.10;99.90;;;;;;4994549;28;20394;-76
2022/08/03 03:40:51;;;;;;;1999.90;999.90;;;20.00;99.90;;;;;;4994289;28;20109;-79
2022/08/03 03:43:17;;;;;;;1999.90;999.90;;;20.00;99.90;;;;;;4993635;28;20073;-79
2022/08/03 03:45:44;;;;;;;1999.90;999.90;;;20.00;99.90;;;;;;4994505;28;20026;-79
2022/08/03 03:48:10;;;;;;;1999.90;999.90;;;20.00;99.90;;;;;;4994279;28;20108;-79
2022/08/03 03:50:39;;;;;;;1999.90;999.90;;;20.00;99.90;;;;;;4993994;28;20471;-76
2022/08/03 03:53:09;;;;;;;1999.90;999.90;;;20.00;99.90;;;;;;4994203;28;20084;-76
2022/08/03 03:55:38;;;;;;;1999.90;999.90;;;19.90;99.90;;;;;;4992767;28;20037;-79
2022/08/03 03:58:05;;;;;;;1999.90;999.90;;;19.90;99.90;;;;;;4993877;28;20029;-76
2022/08/03 04:00:30;;;;;;;1999.90;999.90;;;19.90;99.90;;;;;;4994027;28;20039;-79
2022/08/03 04:02:56;;;;;;;1999.90;999.90;;;19.90;99.90;;;;;;5000871;28;20030;-79
2022/08/03 04:11:14;;;;;;;1999.90;999.90;;;19.80;99.90;;;;;;5013354;28;20060;-78
2022/08/03 04:13:53;;;;;;;1999.90;999.90;;;19.80;99.90;;;;;;5013019;28;20397;-79
2022/08/03 04:16:22;;;;;;;1999.90;999.90;;;19.80;99.90;;;;;;5013228;28;20033;-79
2022/08/03 04:18:56;;;;;;;1999.90;999.90;;;19.70;99.90;;;;;;5013269;28;20076;-76
2022/08/03 04:21:23;;;;;;;1999.90;999.90;;;19.70;99.90;;;;;;5013380;28;20026;-79
2022/08/03 04:23:52;;;;;;;1999.90;999.90;;;19.70;99.90;;;;;;4993612;28;20037;-79
2022/08/03 04:26:21;;;;;;;1999.90;999.90;;;19.70;99.90;;;;;;4993687;28;20014;-79
2022/08/03 04:28:50;;;;;;;1999.90;999.90;;;19.70;99.90;;;;;;4993577;28;20374;-79
2022/08/03 04:31:19;;;;;;;1999.90;999.90;;;19.60;99.90;;;;;;4993707;28;20179;-76
2022/08/03 04:33:45;;;;;;;1999.90;999.90;;;19.60;99.90;;;;;;4993242;28;20023;-79
2022/08/03 04:36:15;;;;;;;1999.90;999.90;;;19.60;99.90;;;;;;4993615;28;20034;-79
2022/08/03 04:39:07;;;;;;;1999.90;999.90;;;19.60;99.90;;;;;;5003666;28;20042;-78
2022/08/03 04:41:34;;;;;;;1999.90;999.90;;;19.60;99.90;;;;;;5013073;28;20030;-76
2022/08/03 04:44:01;;;;;;;1999.90;999.90;;;19.60;99.90;;;;;;5012551;28;20128;-76
2022/08/03 04:46:31;;;;;;;1999.90;999.90;;;19.60;99.90;;;;;;5013063;28;20496;-79
2022/08/03 04:48:58;;;;;;;1999.90;999.90;;;19.60;99.90;;;;;;5017382;28;20404;-76
2022/08/03 04:51:24;;;;;;;1999.90;999.90;;;19.60;99.90;;;;;;5017120;28;20129;-79
2022/08/03 04:53:50;;;;;;;1999.90;999.90;;;19.60;99.90;;;;;;5017196;28;20054;-77
2022/08/03 04:56:16;;;;;;;1999.90;999.90;;;19.60;99.90;;;;;;5016793;28;20072;-77
2022/08/03 04:58:41;;;;;;;1999.90;999.90;;;19.60;99.90;;;;;;5016681;28;20044;-79
2022/08/03 05:01:07;;;;;;;1999.90;999.90;;;19.60;99.90;;;;;;5002046;28;20061;-79
2022/08/03 05:03:33;;;;;;;1999.90;999.90;;;19.60;99.90;;;;;;5009036;28;20022;-79
2022/08/03 05:05:58;;;;;;;1999.90;999.90;;;19.60;99.90;;;;;;5016862;28;20025;-79
2022/08/03 05:08:24;;;;;;;1999.90;999.90;;;19.60;99.90;;;;;;5016940;28;20096;-76
2022/08/03 05:10:50;;;;;;;1999.90;999.90;;;19.60;99.90;;;;;;5016572;28;20513;-76
2022/08/03 05:13:15;;;;;;;1999.90;999.90;;;19.60;99.90;;;;;;5014850;28;20040;-79
2022/08/03 05:15:41;;;;;;;1999.90;999.90;;;19.60;99.90;;;;;;5016694;28;20026;-76
2022/08/03 05:18:07;;;;;;;1999.90;999.90;;;19.60;99.90;;;;;;5016471;28;20032;-79
2022/08/03 05:20:33;;;;;;;1999.90;999.90;;;19.70;99.90;;;;;;5016373;28;20027;-76
2022/08/03 05:23:00;;;;;;;1999.90;999.90;;;19.70;99.90;;;;;;5016320;28;20481;-76
2022/08/03 05:25:26;;;;;;;1999.90;999.90;;;19.70;99.90;;;;;;5016594;28;20153;-76
2022/08/03 05:27:52;;;;;;;1999.90;999.90;;;19.70;99.90;;;;;;5016106;28;20497;-79
2022/08/03 05:30:18;;;;;;;1999.90;999.90;;;19.70;99.90;;;;;;5016405;28;20026;-76
2022/08/03 05:32:43;;;;;;;1999.90;999.90;;;19.80;99.90;;;;;;5016437;28;20033;-77
2022/08/03 05:35:09;;;;;;;1999.90;999.90;;;19.80;99.90;;;;;;5015811;28;20018;-76
2022/08/03 05:37:35;;;;;;;1999.90;999.90;;;19.90;99.90;;;;;;5015030;28;20036;-76
2022/08/03 05:40:01;;;;;;;1999.90;999.90;;;19.90;99.90;;;;;;4996525;28;20053;-76
2022/08/03 05:42:27;;;;;;;1999.90;999.90;;;20.00;99.90;;;;;;4995713;28;20453;-79
2022/08/03 05:44:52;;;;;;;1999.90;999.90;;;20.00;99.90;;;;;;4996585;28;20014;-76
2022/08/03 05:47:18;;;;;;;1999.90;999.90;;;20.10;99.90;;;;;;4996410;28;20125;-76
2022/08/03 05:49:44;;;;;;;1999.90;999.90;;;20.10;99.90;;;;;;4996398;28;20026;-79
2022/08/03 05:52:09;;;;;;;1999.90;999.90;;;20.20;99.90;;;;;;4996285;28;20506;-79
2022/08/03 05:54:35;;;;;;;1999.90;999.90;;;20.20;99.90;;;;;;4996264;28;20027;-79
2022/08/03 05:57:01;;;;;;;1999.90;999.90;;;20.30;99.90;;;;;;4996059;28;20038;-79
2022/08/03 05:59:26;;;;;;;1999.90;999.90;;;20.40;99.90;;;;;;4995381;28;20058;-79
2022/08/03 06:01:52;;;;;;;1999.90;999.90;;;20.50;99.90;;;;;;4996375;28;20102;-77
2022/08/03 06:04:18;;;;;;;1999.90;999.90;;;20.60;99.90;;;;;;5012666;28;20018;-79
2022/08/03 06:06:44;;;;;;;1999.90;999.90;;;20.70;99.90;;;;;;5014490;28;20026;-79
2022/08/03 06:09:09;;;;;;;1999.90;999.90;;;20.70;99.90;;;;;;5015511;28;20052;-76
2022/08/03 06:11:36;;;;;;;1999.90;999.90;;;20.80;99.90;;;;;;5015169;28;20053;-76
2022/08/03 06:14:01;;;;;;;1999.90;999.90;;;20.90;99.90;;;;;;5015675;28;20034;-80
2022/08/03 06:16:27;;;;;;;1999.90;999.90;;;21.00;99.90;;;;;;5015473;28;20033;-80
2022/08/03 06:18:53;;;;;;;1999.90;999.90;;;21.00;99.90;;;;;;5015337;28;20029;-76
2022/08/03 06:21:18;;;;;;;1999.90;999.90;;;21.10;99.90;;;;;;5015344;28;20104;-80
2022/08/03 06:23:46;;;;;;;1999.90;999.90;;;21.30;99.90;;;;;;5015343;28;20018;-80
2022/08/03 06:26:12;;;;;;;1999.90;999.90;;;21.40;99.90;;;;;;5014947;28;20032;-80
2022/08/03 06:28:38;;;;;;;1999.90;999.90;;;21.60;99.90;;;;;;5015134;28;20030;-80
2022/08/03 06:31:04;;;;;;;1999.90;999.90;;;21.70;99.90;;;;;;5014929;28;20485;-80
2022/08/03 06:33:30;;;;;;;1999.90;999.90;;;21.90;99.90;;;;;;5015018;28;20425;-76
2022/08/03 06:35:55;;;;;;;1999.90;999.90;;;22.00;99.90;;;;;;5015028;28;20065;-80
2022/08/03 06:38:21;;;;;;;1999.90;999.90;;;22.20;99.90;;;;;;5014730;28;20030;-76
2022/08/03 06:40:46;;;;;;;1999.90;999.90;;;22.30;99.90;;;;;;5012556;28;20510;-76
2022/08/03 06:43:14;;;;;;;1999.90;999.90;;;22.40;99.90;;;;;;5012862;28;20033;-80
2022/08/03 06:45:40;;;;;;;1999.90;999.90;;;22.60;99.90;;;;;;5014643;28;20072;-80
2022/08/03 06:48:08;;;;;;;1999.90;999.90;;;22.80;99.90;;;;;;5015050;28;20076;-80
2022/08/03 06:50:36;;;;;;;1999.90;999.90;;;23.00;99.90;;;;;;5014639;28;20049;-80
2022/08/03 06:53:03;;;;;;;1999.90;999.90;;;23.20;99.90;;;;;;5014789;28;20029;-76
2022/08/03 06:55:29;;;;;;;1999.90;999.90;;;23.40;99.90;;;;;;5014155;28;20026;-76
2022/08/03 06:57:55;;;;;;;1999.90;999.90;;;23.50;99.90;;;;;;5014689;28;20483;-79
2022/08/03 07:00:20;;;;;;;1999.90;999.90;;;23.70;99.90;;;;;;5006423;28;20106;-79
2022/08/03 07:02:46;;;;;;;1999.90;999.90;;;23.80;99.90;;;;;;5000552;28;20053;-75
2022/08/03 07:05:12;;;;;;;1999.90;999.90;;;24.10;99.90;;;;;;5014577;28;20064;-75
2022/08/03 07:07:39;;;;;;;1999.90;999.90;;;24.20;99.70;;;;;;5014817;28;20018;-75
2022/08/03 07:10:06;;;;;;;1999.90;999.90;;;24.30;99.30;;;;;;5007524;28;20037;-79
2022/08/03 07:12:34;;;;;;;1999.90;999.90;;;24.50;99.00;;;;;;5012379;28;20053;-76
2022/08/03 07:15:01;;;;;;;1999.90;999.90;;;24.60;98.90;;;;;;5013015;28;20026;-79
2022/08/03 07:17:27;;;;;;;1999.90;999.90;;;24.80;98.60;;;;;;5012339;28;20018;-75
2022/08/03 07:19:53;;;;;;;1999.90;999.90;;;25.00;98.20;;;;;;5012566;28;20034;-76
2022/08/03 07:22:19;;;;;;;1999.90;999.90;;;25.10;97.90;;;;;;5013309;28;20477;-79
2022/08/03 07:24:45;;;;;;;1999.90;999.90;;;25.30;97.70;;;;;;5014051;28;20397;-79
2022/08/03 07:27:11;;;;;;;1999.90;999.90;;;25.50;97.50;;;;;;5013515;28;20033;-79
2022/08/03 07:29:37;;;;;;;1999.90;999.90;;;25.70;97.40;;;;;;5014188;28;20022;-79
2022/08/03 07:32:04;;;;;;;1999.90;999.90;;;25.80;97.30;;;;;;5013454;28;20160;-79
2022/08/03 07:34:30;;;;;;;1999.90;999.90;;;26.00;97.00;;;;;;5013798;28;20505;-79
2022/08/03 07:36:56;;;;;;;1999.90;999.90;;;26.20;96.60;;;;;;5013926;28;20038;-79
2022/08/03 07:39:21;;;;;;;1999.90;999.90;;;26.50;96.10;;;;;;5013179;28;20022;-79
2022/08/03 07:41:50;;;;;;;1999.90;999.90;;;26.80;95.60;;;;;;5013575;28;20033;-76
2022/08/03 07:44:17;;;;;;;1999.90;999.90;;;27.00;95.10;;;;;;5013291;28;20543;-76
2022/08/03 07:46:42;;;;;;;1999.90;999.90;;;27.30;94.80;;;;;;5014039;28;20374;-75
2022/08/03 07:49:08;;;;;;;1999.90;999.90;;;27.60;94.10;;;;;;5012587;28;20036;-79
2022/08/03 07:51:34;;;;;;;1999.90;999.90;;;27.90;93.30;;;;;;5012956;28;20065;-79
2022/08/03 07:54:00;;;;;;;1999.90;999.90;;;28.80;92.70;;;;;;5013132;28;20484;-73
2022/08/03 07:56:26;;;;;;;1999.90;999.90;;;31.40;90.60;;;;;;5013617;28;20022;-74
2022/08/03 07:58:53;;;;;;;1999.90;999.90;;;33.80;85.70;;;;;;5013654;28;20026;-73
2022/08/03 08:01:19;;;;;;;1999.90;999.90;;;35.40;83.00;;;;;;5013523;28;20429;-74
2022/08/03 08:03:45;;;;;;;1999.90;999.90;;;36.40;80.80;;;;;;5013385;28;20096;-77
2022/08/03 08:06:11;;;;;;;1999.90;999.90;;;36.90;79.40;;;;;;5013571;28;20044;-74
2022/08/03 08:08:38;;;;;;;1999.90;999.90;;;37.50;78.60;;;;;;5013358;28;20493;-77
2022/08/03 08:11:04;;;;;;;1999.90;999.90;;;37.70;78.00;;;;;;5012988;28;20476;-74
2022/08/03 08:13:30;;;;;;;1999.90;999.90;;;38.30;76.90;;;;;;5013265;28;20022;-74
2022/08/03 08:15:55;;;;;;;1999.90;999.90;;;38.70;76.20;;;;;;5012839;28;20504;-74
2022/08/03 08:18:22;;;;;;;1999.90;999.90;;;39.10;75.40;;;;;;5012588;28;20180;-74
2022/08/03 08:20:48;;;;;;;1999.90;999.90;;;39.30;74.90;;;;;;5012880;28;20045;-78
2022/08/03 08:23:14;;;;;;;1999.90;999.90;;;39.80;74.70;;;;;;5009799;28;20034;-74
2022/08/03 08:25:40;;;;;;;1999.90;999.90;;;40.00;73.70;;;;;;5010365;28;20044;-74
2022/08/03 08:28:05;;;;;;;1999.90;999.90;;;39.90;73.60;;;;;;5012804;28;20033;-79
2022/08/03 08:30:32;;;;;;;1999.90;999.90;;;39.90;73.20;;;;;;5012658;28;20069;-74
2022/08/03 08:32:58;;;;;;;1999.90;999.90;;;40.40;72.40;;;;;;5013076;28;20032;-77
2022/08/03 08:35:24;;;;;;;1999.90;999.90;;;40.60;71.90;;;;;;5012546;28;20096;-72
2022/08/03 08:37:49;;;;;;;1999.90;999.90;;;40.80;71.90;;;;;;5010345;28;20022;-74
2022/08/03 08:40:15;;;;;;;1999.90;999.90;;;40.90;71.20;;;;;;5010424;28;20042;-77
2022/08/03 08:42:42;;;;;;;1999.90;999.90;;;41.40;71.10;;;;;;5011772;28;20033;-78
2022/08/03 08:45:10;;;;;;;1999.90;999.90;;;41.30;70.90;;;;;;5010170;28;20489;-74
2022/08/03 08:47:38;;;;;;;1999.90;999.90;;;41.40;70.00;;;;;;5010870;28;20026;-78
2022/08/03 08:50:06;;;;;;;1999.90;999.90;;;41.50;69.40;;;;;;5012090;28;20033;-74
2022/08/03 08:52:33;;;;;;;1999.90;999.90;;;41.60;70.10;;;;;;5011781;28;20054;-74
2022/08/03 08:55:02;;;;;;;1999.90;999.90;;;42.00;69.50;;;;;;5012639;28;20029;-77
2022/08/03 08:57:32;;;;;;;1999.90;999.90;;;41.80;69.10;;;;;;5012501;28;20050;-77
2022/08/03 08:59:58;;;;;;;1999.90;999.90;;;42.20;69.00;;;;;;5012311;28;20095;-77
2022/08/03 09:02:24;;;;;;;1999.90;999.90;;;42.40;68.30;;;;;;5012257;28;20516;-74
2022/08/03 09:04:50;;;;;;;1999.90;999.90;;;42.40;68.40;;;;;;5012428;28;20025;-74
2022/08/03 09:07:17;;;;;;;1999.90;999.90;;;42.20;68.20;;;;;;5012438;28;20389;-77
2022/08/03 09:09:42;;;;;;;1999.90;999.90;;;42.10;68.40;;;;;;5012467;28;20053;-77
2022/08/03 09:12:08;;;;;;;1999.90;999.90;;;42.40;68.50;;;;;;5011955;28;20022;-77
2022/08/03 09:14:34;;;;;;;1999.90;999.90;;;42.80;66.90;;;;;;5012381;28;20100;-74
2022/08/03 09:17:02;;;;;;;1999.90;999.90;;;43.00;67.00;;;;;;5009806;28;20384;-74
2022/08/03 09:19:29;;;;;;;1999.90;999.90;;;42.80;67.00;;;;;;4992339;28;20022;-77
2022/08/03 09:22:15;;;;;;;1999.90;999.90;;;42.80;66.70;;;;;;5003432;28;20030;-77
2022/08/03 09:24:55;;;;;;;1999.90;999.90;;;43.10;66.30;;;;;;5012020;28;20523;-79
2022/08/03 09:27:21;;;;;;;1999.90;999.90;;;43.20;66.20;;;;;;5011920;28;20030;-74
2022/08/03 09:29:53;;;;;;;1999.90;999.90;;;42.70;66.60;;;;;;5011696;28;20520;-78
2022/08/03 09:32:23;;;;;;;1999.90;999.90;;;42.80;66.60;;;;;;5012152;28;20033;-77
2022/08/03 09:34:51;;;;;;;1999.90;999.90;;;43.50;66.00;;;;;;5013889;28;20113;-74
2022/08/03 09:37:19;;;;;;;1999.90;999.90;;;43.70;66.10;;;;;;5014685;28;20109;-77
2022/08/03 09:39:46;;;;;;;1999.90;999.90;;;43.80;65.10;;;;;;5014777;28;20378;-74
2022/08/03 09:42:17;;;;;;;1999.90;999.90;;;44.20;65.00;;;;;;5014866;28;20109;-74
2022/08/03 09:44:48;;;;;;;1999.90;999.90;;;44.30;64.70;;;;;;5013657;28;20029;-77
2022/08/03 09:47:25;;;;;;;1999.90;999.90;;;43.70;64.80;;;;;;5015696;28;20413;-74
2022/08/03 09:50:03;;;;;;;1999.90;999.90;;;42.20;65.50;;;;;;5015234;28;20022;-74
2022/08/03 09:52:37;;;;;;;1999.90;999.90;;;41.70;66.20;;;;;;5015027;28;20551;-77
2022/08/03 09:55:11;;;;;;;1999.90;999.90;;;42.80;66.00;;;;;;5001308;28;20027;-75
2022/08/03 09:57:39;;;;;;;1999.90;999.90;;;43.00;64.90;;;;;;5015217;28;20100;-78
2022/08/03 10:00:10;;;;;;;1999.90;999.90;;;43.10;64.80;;;;;;5015177;28;20026;-78
2022/08/03 10:02:37;;;;;;;1999.90;999.90;;;43.20;63.50;;;;;;5014623;28;20018;-77
2022/08/03 10:05:03;;;;;;;1999.90;999.90;;;42.50;63.70;;;;;;5014906;28;20088;-77
2022/08/03 10:07:29;;;;;;;1999.90;999.90;;;43.30;63.80;;;;;;5013834;28;20101;-74
2022/08/03 10:09:57;;;;;;;1999.90;999.90;;;44.30;63.30;;;;;;5014938;28;20149;-77
2022/08/03 10:12:24;;;;;;;1999.90;999.90;;;44.90;62.70;;;;;;5013661;28;20532;-77
2022/08/03 10:14:51;;;;;;;1999.90;999.90;;;45.10;62.70;;;;;;5014452;28;20029;-75
2022/08/03 10:17:18;;;;;;;1999.90;999.90;;;44.50;62.50;;;;;;5012961;28;20021;-77
2022/08/03 10:19:44;;;;;;;1999.90;999.90;;;44.70;62.70;;;;;;5014604;28;20030;-74
2022/08/03 10:22:13;;;;;;;1999.90;999.90;;;44.20;62.20;;;;;;5014066;28;20422;-74
2022/08/03 10:25:19;;;;;;;1999.90;999.90;;;43.30;65.40;;;;;;5014446;28;20501;-77
2022/08/03 10:27:47;;;;;;;1999.90;999.90;;;41.90;66.30;;;;;;4973293;28;20439;-77
2022/08/03 10:30:13;;;;;;;1999.90;999.90;;;41.60;67.00;;;;;;4973789;28;20051;-76
2022/08/03 10:32:56;;;;;;;1999.90;999.90;;;40.70;67.30;;;;;;4973382;28;20031;-73
2022/08/03 10:35:24;;;;;;;1999.90;999.90;;;39.80;67.90;;;;;;4957302;28;20505;-73
2022/08/03 10:37:58;;;;;;;1999.90;999.90;;;39.90;68.30;;;;;;4972795;28;20070;-76
2022/08/03 10:40:27;;;;;;;1999.90;999.90;;;39.60;68.10;;;;;;4954394;28;20078;-76
2022/08/03 10:42:57;;;;;;;1999.90;999.90;;;38.70;69.10;;;;;;4937710;29;20507;-76
2022/08/03 10:45:25;;;;;;;1999.90;999.90;;;38.50;69.20;;;;;;4965565;28;20019;-73
2022/08/03 10:47:52;;;;;;;1999.90;999.90;;;38.90;68.70;;;;;;4956814;28;20026;-73
2022/08/03 10:50:18;;;;;;;1999.90;999.90;;;39.40;69.00;;;;;;4973244;28;20114;-72
2022/08/03 10:53:01;;;;;;;1999.90;999.90;;;39.10;68.00;;;;;;4973734;28;20082;-76
2022/08/03 10:58:36;;;;;;;1999.90;999.90;;;39.00;67.80;;;;;;4972873;28;20426;-77
2022/08/03 11:01:07;;;;;;;1999.90;999.90;;;38.90;67.50;;;;;;4977820;28;20089;-72
2022/08/03 11:03:53;;;;;;;1999.90;999.90;;;38.90;67.80;;;;;;5006631;28;20025;-77
2022/08/03 11:06:25;;;;;;;1999.90;999.90;;;39.40;67.80;;;;;;5014166;28;20301;-77
2022/08/03 11:09:15;;;;;;;1999.90;999.90;;;39.70;67.00;;;;;;5012456;28;20033;-77
2022/08/03 11:11:45;;;;;;;1999.90;999.90;;;39.50;67.00;;;;;;5012537;28;20374;-73
2022/08/03 11:14:11;;;;;;;1999.90;999.90;;;39.00;67.70;;;;;;5014211;28;20026;-72
2022/08/03 11:16:43;;;;;;;1999.90;999.90;;;39.30;67.40;;;;;;5012658;28;20029;-76
2022/08/03 11:19:11;;;;;;;1999.90;999.90;;;39.20;67.50;;;;;;5013365;28;20037;-77
2022/08/03 11:21:52;;;;;;;1999.90;999.90;;;39.40;67.30;;;;;;5013993;28;20473;-76
2022/08/03 11:24:36;;;;;;;1999.90;999.90;;;39.30;67.80;;;;;;5014058;28;20029;-72
2022/08/03 11:27:16;;;;;;;1999.90;999.90;;;38.60;67.70;;;;;;5013682;28;20057;-73
2022/08/03 11:30:07;;;;;;;1999.90;999.90;;;38.40;67.70;;;;;;5012473;28;20396;-76
2022/08/03 11:35:17;;;;;;;;;;;37.90;68.40;;;;;;5012952;28;20218;-76
2022/08/03 11:37:55;;;;;;;1999.90;999.90;;;37.70;68.50;;;;;;5004330;28;19916;-73
2022/08/03 11:40:36;;;;;;;1999.90;999.90;;;38.50;68.40;;;;;;5013695;28;20122;-73
2022/08/03 11:43:22;;;;;;;1999.90;999.90;;;38.00;68.40;;;;;;5013577;28;20511;-77
2022/08/03 11:46:12;;;;;;;1999.90;999.90;;;36.60;69.60;;;;;;5008656;28;20598;-76
2022/08/03 11:48:44;;;;;;;1999.90;999.90;;;36.50;70.00;;;;;;5013358;28;20026;-76
2022/08/03 11:51:24;;;;;;;1999.90;999.90;;;36.10;69.90;;;;;;5013392;28;20057;-72
2022/08/03 11:53:54;;;;;;;1999.90;999.90;;;35.50;70.70;;;;;;5011367;28;20048;-73
2022/08/03 11:56:19;;;;;;;1999.90;999.90;;;35.40;71.10;;;;;;5012854;28;20396;-73
2022/08/03 11:58:50;;;;;;;1999.90;999.90;;;35.60;70.60;;;;;;5012905;28;20080;-76
2022/08/03 12:01:17;;;;;;;1999.90;999.90;;;35.10;71.60;;;;;;5013060;28;20056;-72
2022/08/03 12:03:43;;;;;;;1999.90;999.90;;;35.00;71.90;;;;;;5013182;28;20026;-76
2022/08/03 12:06:13;;;;;;;1999.90;999.90;;;35.10;72.00;;;;;;5011967;28;20052;-72
2022/08/03 12:08:40;;;;;;;1999.90;999.90;;;34.40;74.20;;;;;;5012803;28;20022;-73
2022/08/03 12:11:08;;;;;;;1999.90;999.90;;;34.80;74.00;;;;;;5012736;28;20030;-73
2022/08/03 12:13:37;;;;;;;1999.90;999.90;;;35.00;74.10;;;;;;5011797;28;20397;-73
2022/08/03 12:16:03;;;;;;;1999.90;999.90;;;34.50;75.50;;;;;;5013120;28;20030;-75
2022/08/03 12:18:29;;;;;;;1999.90;999.90;;;34.60;75.10;;;;;;5012683;28;20080;-72